Tenstrike, Minnesota
Current Conditions -  °F | °C
As of 10:33 AM on Monday 26 Jan 2015 (Local Time) from KBJI Reporting Station
Overcast Overcast  
Wind Chill: 25°   Ceiling: 1400
Heat Index: 35°   Visibility: 10mi
Dew Point: 32°   Wind: 16mph
Humidity: 89%   Direction: 300°WNW
Pressure: 29.66"   Gusts: 23mph
Location:  47.66°N, 94.67°W
Report Text: KBJI 261633Z AUTO 30014G20KT 10SM BKN014 OVC026 02/00 A2966 RMK AO2 T00151002
Loading
Personal Weather Stations






























Interactive Weather Map New forecast layout! Learn more

10-Day Weather Forecast

Advertisements
Track Severe Weather on mobile